Time;durP1;ratioP1;P1;durP2;ratioP2;P2;SDS_P1;SDS_P2;PMS_P1;PMS_P2;Temp;Humidity;BMP_temperature;BMP_pressure;BME280_temperature;BME280_humidity;BME280_pressure;Samples;Min_cycle;Max_cycle;Signal;HPM_P1;HPM_P2
2022/03/10 00:01:56;;;;;;;8.80;3.90;;;;;;;7.55;31.89;100991.19;5055936;28;20033;-79
2022/03/10 00:04:22;;;;;;;7.97;3.40;;;;;;;7.60;31.43;100996.88;5056188;28;20259;-79
2022/03/10 00:06:47;;;;;;;25.10;4.75;;;;;;;7.61;31.37;100991.34;5056952;28;20053;-78
2022/03/10 00:09:13;;;;;;;12.97;5.03;;;;;;;7.67;31.63;100992.50;5054955;28;20391;-78
2022/03/10 00:11:38;;;;;;;9.53;3.70;;;;;;;7.82;31.25;101001.50;5054454;28;20154;-78
2022/03/10 00:14:03;;;;;;;10.33;4.33;;;;;;;7.64;31.78;100998.22;5052944;28;20021;-78
2022/03/10 00:16:29;;;;;;;8.90;3.60;;;;;;;7.43;31.69;101004.13;5052682;28;20029;-78
2022/03/10 00:18:54;;;;;;;8.77;3.90;;;;;;;7.28;32.50;101001.31;5053827;28;20037;-80
2022/03/10 00:21:19;;;;;;;11.90;4.30;;;;;;;7.29;32.40;101002.13;5053729;28;20074;-78
2022/03/10 00:23:45;;;;;;;7.93;4.10;;;;;;;7.50;32.22;101001.59;5053691;28;20111;-78
2022/03/10 00:26:10;;;;;;;10.57;4.00;;;;;;;7.53;32.49;101003.91;5053639;28;20036;-78
2022/03/10 00:28:35;;;;;;;12.80;4.37;;;;;;;7.77;31.37;101009.22;5054622;28;20049;-78
2022/03/10 00:31:01;;;;;;;8.03;4.13;;;;;;;7.73;31.79;101009.75;5055054;28;20021;-78
2022/03/10 00:33:26;;;;;;;8.67;4.10;;;;;;;7.43;32.51;101012.16;5053846;28;20318;-79
2022/03/10 00:35:52;;;;;;;10.10;3.77;;;;;;;7.47;32.59;101021.56;5053577;28;20018;-78
2022/03/10 00:38:18;;;;;;;8.88;3.58;;;;;;;7.52;32.82;101027.25;5054352;28;20065;-77
2022/03/10 00:40:43;;;;;;;11.50;4.18;;;;;;;7.52;32.78;101021.88;5054328;28;20041;-78
2022/03/10 00:43:11;;;;;;;11.50;4.15;;;;;;;7.64;32.91;101033.91;5054675;28;20033;-78
2022/03/10 00:45:37;;;;;;;10.43;3.67;;;;;;;7.38;33.73;101027.06;5054412;28;20522;-78
2022/03/10 00:48:02;;;;;;;8.57;3.30;;;;;;;7.35;33.17;101022.03;5054636;28;20033;-78
2022/03/10 00:50:28;;;;;;;10.35;3.63;;;;;;;7.39;33.54;101021.53;5056745;28;20099;-79
2022/03/10 00:52:53;;;;;;;12.18;4.22;;;;;;;7.39;34.02;101020.72;5055711;28;20021;-79
2022/03/10 00:55:19;;;;;;;11.27;4.30;;;;;;;7.44;33.49;101026.41;5055045;28;20382;-78
2022/03/10 00:57:45;;;;;;;9.45;3.47;;;;;;;7.46;34.02;101013.66;5057997;28;20024;-77
2022/03/10 01:00:11;;;;;;;;;;;;;;;7.36;34.16;101016.53;5058282;28;20053;-78
2022/03/10 01:02:37;;;;;;;11.15;4.18;;;;;;;7.35;34.36;101019.38;5056578;28;19908;-78
2022/03/10 01:05:03;;;;;;;12.20;4.45;;;;;;;7.25;34.61;101019.56;5057586;28;20478;-77
2022/03/10 01:07:29;;;;;;;10.50;4.20;;;;;;;7.25;35.18;101011.50;5056993;28;20033;-78
2022/03/10 01:09:54;;;;;;;12.23;4.25;;;;;;;7.25;35.35;101017.72;5057103;28;20075;-78
2022/03/10 01:12:19;;;;;;;12.93;4.77;;;;;;;7.23;35.21;101024.25;5057556;28;20456;-78
2022/03/10 01:14:45;;;;;;;10.93;4.27;;;;;;;7.15;35.40;101010.88;5057286;28;20407;-78
2022/03/10 01:17:10;;;;;;;11.10;4.37;;;;;;;7.17;35.67;101011.50;5057449;28;20107;-78
2022/03/10 01:19:36;;;;;;;12.32;4.53;;;;;;;7.07;35.64;101009.00;5057004;28;20028;-78
2022/03/10 01:22:02;;;;;;;12.07;4.10;;;;;;;7.11;35.59;101013.03;5058018;28;20037;-79
2022/03/10 01:24:27;;;;;;;9.98;4.40;;;;;;;7.03;35.81;101005.00;5057468;28;20263;-78
2022/03/10 01:26:53;;;;;;;9.63;3.90;;;;;;;7.05;36.15;101018.22;5057321;28;20033;-78
2022/03/10 01:29:18;;;;;;;13.20;4.53;;;;;;;7.15;35.95;101011.72;5057863;28;20040;-77
2022/03/10 01:31:44;;;;;;;13.93;5.22;;;;;;;7.09;36.29;101004.31;5057438;28;20037;-77
2022/03/10 01:34:09;;;;;;;8.73;4.18;;;;;;;7.11;36.91;100998.81;5056735;28;20040;-80
2022/03/10 01:36:35;;;;;;;10.57;4.53;;;;;;;7.12;36.52;100997.81;5056939;28;20530;-78
2022/03/10 01:39:04;;;;;;;11.65;4.60;;;;;;;7.16;36.56;100997.31;5056502;28;20033;-78
2022/03/10 01:41:32;;;;;;;10.48;4.30;;;;;;;7.23;36.80;100995.59;5056828;28;20056;-77
2022/03/10 01:44:09;;;;;;;11.70;4.70;;;;;;;7.15;36.80;101003.66;5056649;28;20031;-81
2022/03/10 01:46:35;;;;;;;;;;;;;;;7.09;36.94;101003.50;5057672;28;20139;-77
2022/03/10 01:49:00;;;;;;;16.23;5.07;;;;;;;7.17;36.62;101006.16;5057046;28;20406;-77
2022/03/10 01:51:26;;;;;;;13.48;4.63;;;;;;;7.15;36.96;101002.81;5057210;28;20029;-78
2022/03/10 01:53:52;;;;;;;9.13;4.63;;;;;;;7.04;37.22;100990.59;5055856;28;20063;-77
2022/03/10 01:56:19;;;;;;;11.77;4.45;;;;;;;7.11;36.94;101002.31;5056911;28;20041;-77
2022/03/10 01:58:50;;;;;;;11.70;4.72;;;;;;;7.18;37.23;100983.69;5057157;28;20033;-77
2022/03/10 02:01:16;;;;;;;9.98;4.18;;;;;;;7.15;37.30;100990.25;5057020;28;20052;-78
2022/03/10 02:03:42;;;;;;;10.88;4.40;;;;;;;7.16;37.33;100997.31;5056821;28;20039;-77
2022/03/10 02:06:11;;;;;;;11.52;4.47;;;;;;;7.16;37.54;100993.78;5057111;28;20118;-77
2022/03/10 02:11:21;;;;;;;10.85;4.57;;;;;;;7.01;37.98;101004.31;5057295;28;20045;-78
2022/03/10 02:13:47;;;;;;;10.25;4.03;;;;;;;6.95;37.99;101002.31;5056513;28;20037;-77
2022/03/10 02:18:58;;;;;;;10.55;3.90;;;;;;;6.90;37.72;101001.97;5057760;28;20130;-79
2022/03/10 02:21:24;;;;;;;12.05;4.43;;;;;;;6.82;38.33;101010.00;5056531;28;20056;-78
2022/03/10 02:23:50;;;;;;;12.48;4.60;;;;;;;6.70;38.49;101003.31;5056290;28;20048;-78
2022/03/10 02:26:15;;;;;;;12.38;4.57;;;;;;;6.75;38.01;101000.97;5057376;28;20064;-77
2022/03/10 02:28:42;;;;;;;11.80;4.60;;;;;;;6.71;38.22;100991.59;5056911;28;20045;-77
2022/03/10 02:31:08;;;;;;;13.10;4.18;;;;;;;6.74;38.40;100988.59;5056155;28;20060;-78
2022/03/10 02:33:33;;;;;;;11.95;4.95;;;;;;;6.66;38.36;100991.25;5055679;28;20461;-78
2022/03/10 02:35:59;;;;;;;13.30;3.80;;;;;;;6.64;38.87;100991.41;5056354;28;20035;-78
2022/03/10 02:38:24;;;;;;;13.48;4.78;;;;;;;6.57;38.69;100985.06;5056304;28;20033;-79
2022/03/10 02:40:51;;;;;;;11.20;4.72;;;;;;;6.56;38.89;100986.88;5056082;28;20090;-77
2022/03/10 02:43:17;;;;;;;10.70;4.28;;;;;;;6.55;38.78;100982.53;5055117;28;20116;-78
2022/03/10 02:45:43;;;;;;;13.02;4.50;;;;;;;6.57;38.98;100985.06;5056425;28;20582;-78
2022/03/10 02:48:09;;;;;;;11.32;4.85;;;;;;;6.58;38.98;100976.00;5056098;28;20452;-77
2022/03/10 02:50:34;;;;;;;10.20;4.67;;;;;;;6.58;38.87;100973.34;5056317;28;20029;-77
2022/03/10 02:52:59;;;;;;;11.23;4.68;;;;;;;6.56;38.96;100980.69;5056177;28;20040;-78
2022/03/10 02:55:25;;;;;;;14.03;4.60;;;;;;;6.37;39.59;100973.81;5055711;28;20037;-78
2022/03/10 02:57:50;;;;;;;10.98;4.43;;;;;;;6.40;39.50;100973.47;5055315;28;20025;-78
2022/03/10 03:00:17;;;;;;;11.80;4.90;;;;;;;6.35;39.67;100973.13;5055290;28;20488;-81
2022/03/10 03:02:43;;;;;;;12.93;4.55;;;;;;;6.28;39.75;100967.56;5055777;28;20359;-81
2022/03/10 03:05:12;;;;;;;9.90;4.15;;;;;;;6.23;39.41;100967.25;5055894;28;20101;-78
2022/03/10 03:07:38;;;;;;;12.50;4.35;;;;;;;6.50;39.18;100973.31;5054793;28;20099;-78
2022/03/10 03:10:04;;;;;;;;;;;;;;;6.26;39.93;100974.13;5056157;28;20044;-81
2022/03/10 03:12:29;;;;;;;12.65;4.80;;;;;;;6.30;40.29;100972.78;5055567;28;19916;-77
2022/03/10 03:14:54;;;;;;;12.37;5.27;;;;;;;6.12;39.87;100975.56;5054661;28;20060;-78
2022/03/10 03:17:20;;;;;;;13.33;5.33;;;;;;;6.03;39.97;100975.72;5054685;28;20259;-78
2022/03/10 03:19:45;;;;;;;11.47;5.30;;;;;;;6.31;39.42;100977.13;5054902;28;20075;-77
2022/03/10 03:22:11;;;;;;;14.07;4.77;;;;;;;6.51;38.98;100975.81;5055809;28;20365;-78
2022/03/10 03:24:37;;;;;;;11.45;3.75;;;;;;;6.60;38.29;100985.56;5055919;28;20028;-78
2022/03/10 03:27:03;;;;;;;10.93;3.90;;;;;;;6.56;38.94;100992.25;5055625;28;20033;-82
2022/03/10 03:29:28;;;;;;;10.55;4.05;;;;;;;6.57;38.97;100993.91;5055627;28;20068;-77
2022/03/10 03:31:55;;;;;;;12.57;4.83;;;;;;;6.48;38.89;100986.84;5055059;28;20473;-77
2022/03/10 03:34:20;;;;;;;13.27;5.13;;;;;;;6.41;38.53;100993.06;5055613;28;20644;-77
2022/03/10 03:36:46;;;;;;;9.87;4.47;;;;;;;6.30;39.21;100999.53;5055681;28;20028;-78
2022/03/10 03:39:13;;;;;;;11.05;4.53;;;;;;;6.31;39.27;100995.03;5055281;28;20722;-77
2022/03/10 03:41:39;;;;;;;10.68;4.35;;;;;;;6.25;39.46;100997.38;5055073;28;20040;-77
2022/03/10 03:44:06;;;;;;;;;;;;;;;6.36;38.96;101001.56;5054521;28;20033;-77
2022/03/10 03:46:32;;;;;;;11.57;4.88;;;;;;;6.17;39.41;101005.34;5055031;28;19954;-78
2022/03/10 03:48:58;;;;;;;;;;;;;;;6.19;39.15;100999.84;5055031;28;20065;-77
2022/03/10 03:51:23;;;;;;;12.68;4.68;;;;;;;6.13;39.54;100997.81;5055595;28;19912;-78
2022/03/10 03:53:50;;;;;;;12.90;4.70;;;;;;;6.14;39.96;101005.69;5055870;28;20467;-81
2022/03/10 03:56:16;;;;;;;10.23;4.20;;;;;;;6.04;40.24;101010.34;5055106;28;20040;-78
2022/03/10 03:58:41;;;;;;;11.88;4.88;;;;;;;6.04;40.01;101015.69;5055418;28;20037;-78
2022/03/10 04:01:06;;;;;;;12.27;4.63;;;;;;;5.94;39.99;101014.94;5055449;28;20114;-78
2022/03/10 04:03:32;;;;;;;12.57;4.60;;;;;;;6.01;40.21;101009.81;5053858;28;20730;-77
2022/03/10 04:05:58;;;;;;;8.90;4.30;;;;;;;5.92;40.14;101009.75;5053690;28;20028;-77
2022/03/10 04:08:24;;;;;;;15.68;4.57;;;;;;;5.91;40.32;101013.44;5055214;28;20519;-78
2022/03/10 04:10:51;;;;;;;14.98;4.82;;;;;;;5.97;40.39;101009.28;5054592;28;20056;-77
2022/03/10 04:13:16;;;;;;;12.57;4.63;;;;;;;5.90;39.95;101010.94;5054932;28;20037;-78
2022/03/10 04:15:42;;;;;;;12.57;4.40;;;;;;;5.89;39.95;101009.25;5053496;28;20047;-79
2022/03/10 04:18:07;;;;;;;12.20;4.10;;;;;;;5.87;40.10;101000.53;5055299;28;20037;-77
2022/03/10 04:20:32;;;;;;;11.40;4.63;;;;;;;5.83;40.51;101005.34;5053321;28;20029;-78
2022/03/10 04:22:58;;;;;;;10.17;4.30;;;;;;;5.91;39.64;101001.94;5055010;28;20110;-77
2022/03/10 04:25:24;;;;;;;12.00;4.38;;;;;;;5.81;40.65;101003.84;5054963;28;20483;-77
2022/03/10 04:27:51;;;;;;;11.40;4.60;;;;;;;5.89;40.21;101011.94;5055490;28;20379;-78
2022/03/10 04:30:18;;;;;;;12.40;4.70;;;;;;;5.82;39.66;101008.19;5054999;28;20021;-77
2022/03/10 04:32:46;;;;;;;13.88;5.80;;;;;;;5.81;40.44;101010.03;5062848;28;20056;-78
2022/03/10 04:35:14;;;;;;;11.50;4.47;;;;;;;5.90;40.28;101013.63;5062476;28;20025;-79
2022/03/10 04:37:40;;;;;;;12.38;4.15;;;;;;;5.85;40.31;101005.19;5060081;28;20426;-78
2022/03/10 04:40:07;;;;;;;9.52;4.30;;;;;;;5.98;39.60;101013.63;5058935;28;20024;-79
2022/03/10 04:42:33;;;;;;;9.35;4.25;;;;;;;5.87;40.24;101005.88;5059243;28;20399;-77
2022/03/10 04:44:59;;;;;;;19.52;5.68;;;;;;;5.87;40.48;101013.91;5059184;28;20037;-77
2022/03/10 04:47:24;;;;;;;9.93;4.30;;;;;;;5.73;40.60;101018.00;5058314;28;20036;-78
2022/03/10 04:49:49;;;;;;;12.27;4.87;;;;;;;5.75;40.22;101018.66;5058293;28;20029;-81
2022/03/10 04:52:14;;;;;;;12.43;4.53;;;;;;;5.48;41.03;101016.19;5059436;28;20524;-78
2022/03/10 04:54:40;;;;;;;10.90;4.30;;;;;;;5.29;41.58;101011.03;5058039;28;20029;-79
2022/03/10 04:57:07;;;;;;;9.60;3.70;;;;;;;5.29;42.05;101016.38;5058238;28;20052;-79
2022/03/10 04:59:32;;;;;;;9.95;4.28;;;;;;;5.44;41.49;101009.47;5057932;28;20025;-78
2022/03/10 05:01:58;;;;;;;10.23;4.30;;;;;;;5.35;41.53;101011.25;5058579;28;20029;-79
2022/03/10 05:04:23;;;;;;;12.73;4.82;;;;;;;5.29;41.47;101016.38;5058818;28;20507;-79
2022/03/10 05:06:49;;;;;;;10.97;3.87;;;;;;;5.47;40.86;101009.16;5059414;28;20035;-78
2022/03/10 05:09:14;;;;;;;9.40;4.27;;;;;;;5.52;40.79;101009.53;5059621;28;20021;-78
2022/03/10 05:11:40;;;;;;;9.77;3.97;;;;;;;5.49;41.09;101001.81;5058754;28;20143;-78
2022/03/10 05:14:06;;;;;;;14.63;4.32;;;;;;;5.33;41.55;101007.91;5058137;28;20032;-77
2022/03/10 05:16:31;;;;;;;19.60;5.15;;;;;;;5.39;40.81;101009.09;5057239;28;20037;-78
2022/03/10 05:18:57;;;;;;;11.77;4.55;;;;;;;5.37;40.82;101013.78;5057624;28;20025;-78
2022/03/10 05:21:22;;;;;;;8.03;3.53;;;;;;;5.56;40.62;101009.03;5057191;28;20041;-78
2022/03/10 05:23:47;;;;;;;10.23;3.93;;;;;;;5.79;39.78;101003.16;5058439;28;20033;-79
2022/03/10 05:26:13;;;;;;;10.97;4.37;;;;;;;5.65;40.73;101017.13;5058532;28;20098;-78
2022/03/10 05:28:38;;;;;;;10.33;3.60;;;;;;;5.38;41.57;101016.28;5056745;28;20747;-79
2022/03/10 05:31:03;;;;;;;11.47;3.67;;;;;;;5.46;40.94;101020.84;5057038;28;20531;-78
2022/03/10 05:33:29;;;;;;;15.83;4.70;;;;;;;5.54;40.74;101011.06;5059325;28;20028;-79
2022/03/10 05:35:54;;;;;;;7.33;3.20;;;;;;;5.50;40.87;101015.03;5058999;28;20418;-79
2022/03/10 05:38:19;;;;;;;10.50;3.53;;;;;;;5.36;41.32;101020.13;5058987;28;20033;-79
2022/03/10 05:40:45;;;;;;;10.97;3.40;;;;;;;5.35;41.26;101016.63;5058974;28;20024;-82
2022/03/10 05:43:10;;;;;;;10.80;3.55;;;;;;;5.26;41.52;101027.38;5056363;28;20107;-79
2022/03/10 05:45:35;;;;;;;10.47;4.07;;;;;;;5.24;41.68;101027.53;5059704;28;20065;-79
2022/03/10 05:48:01;;;;;;;10.73;4.00;;;;;;;5.17;42.04;101034.50;5057538;28;20029;-79
2022/03/10 05:50:27;;;;;;;8.20;4.13;;;;;;;5.15;41.96;101031.16;5059175;28;20024;-79
2022/03/10 05:52:53;;;;;;;10.05;3.55;;;;;;;5.26;41.52;101030.06;5063203;28;20029;-79
2022/03/10 05:55:20;;;;;;;10.48;4.30;;;;;;;5.31;41.06;101031.28;5063806;28;20029;-79
2022/03/10 05:57:45;;;;;;;;;;;;;;;5.32;41.40;101034.78;5062403;28;20033;-79
2022/03/10 06:00:11;;;;;;;11.98;4.25;;;;;;;5.28;41.38;101036.91;5060435;28;19932;-82
2022/03/10 06:02:38;;;;;;;12.73;3.80;;;;;;;5.15;41.55;101037.34;5059483;28;20095;-79
2022/03/10 06:05:04;;;;;;;;;;;;;;;5.06;42.12;101042.75;5058744;28;20037;-79
2022/03/10 06:07:30;;;;;;;8.73;3.40;;;;;;;5.17;41.85;101046.03;5060225;28;19971;-78
2022/03/10 06:09:56;;;;;;;;;;;;;;;5.19;41.62;101043.22;5060672;28;20380;-79
2022/03/10 06:12:23;;;;;;;9.80;4.53;;;;;;;4.88;42.47;101045.44;5059693;28;19913;-79
2022/03/10 06:14:52;;;;;;;10.25;4.38;;;;;;;5.01;42.46;101051.25;5059358;28;20059;-79
2022/03/10 06:17:17;;;;;;;11.27;4.60;;;;;;;5.14;41.79;101056.19;5061738;28;20029;-79
2022/03/10 06:19:43;;;;;;;11.03;4.47;;;;;;;5.14;42.05;101049.00;5058542;28;20384;-79
2022/03/10 06:22:09;;;;;;;9.53;3.83;;;;;;;5.25;41.47;101061.28;5059750;28;20047;-79
2022/03/10 06:24:34;;;;;;;10.13;3.95;;;;;;;5.06;41.83;101058.78;5057102;28;20464;-79
2022/03/10 06:26:59;;;;;;;10.63;4.20;;;;;;;5.22;41.62;101058.91;5059599;28;20120;-80
2022/03/10 06:29:25;;;;;;;9.00;4.37;;;;;;;5.22;41.40;101057.06;5060450;28;20053;-79
2022/03/10 06:31:52;;;;;;;11.48;4.30;;;;;;;5.07;41.98;101058.63;5060847;28;20029;-79
2022/03/10 06:34:17;;;;;;;8.80;3.83;;;;;;;4.92;42.70;101062.81;5061557;28;20041;-80
2022/03/10 06:36:43;;;;;;;7.97;3.37;;;;;;;4.98;42.99;101067.56;5061894;28;20479;-81
2022/03/10 06:39:08;;;;;;;10.27;3.60;;;;;;;5.02;42.46;101062.75;5060482;28;20025;-81
2022/03/10 06:41:34;;;;;;;12.10;4.10;;;;;;;5.17;42.62;101063.91;5060259;28;20107;-80
2022/03/10 06:43:59;;;;;;;9.63;4.13;;;;;;;5.19;42.47;101065.44;5062885;28;20467;-81
2022/03/10 06:46:25;;;;;;;11.40;5.20;;;;;;;5.21;42.17;101067.91;5061291;28;20741;-82
2022/03/10 06:48:50;;;;;;;8.85;3.55;;;;;;;5.37;42.12;101069.91;5062681;28;20033;-83
2022/03/10 06:51:16;;;;;;;8.68;4.18;;;;;;;5.47;41.40;101074.16;5066883;28;20029;-80
2022/03/10 06:53:45;;;;;;;13.70;4.37;;;;;;;5.60;40.79;101068.38;5067039;28;20111;-81
2022/03/10 06:56:11;;;;;;;10.32;4.20;;;;;;;5.74;40.37;101072.31;5063661;28;20044;-82
2022/03/10 06:58:36;;;;;;;10.77;4.20;;;;;;;5.77;40.77;101075.50;5061321;28;20379;-79
2022/03/10 07:01:03;;;;;;;11.00;3.83;;;;;;;5.95;40.37;101075.47;5061109;28;20029;-79
2022/03/10 07:03:28;;;;;;;10.38;4.13;;;;;;;5.79;40.83;101067.34;5061622;28;20342;-79
2022/03/10 07:05:53;;;;;;;9.43;3.97;;;;;;;5.74;40.90;101065.13;5059027;28;20059;-80
2022/03/10 07:08:19;;;;;;;11.93;4.67;;;;;;;5.90;40.24;101067.94;5061370;28;20036;-80
2022/03/10 07:10:44;;;;;;;9.00;4.15;;;;;;;5.95;40.46;101070.13;5061725;28;20021;-79
2022/03/10 07:13:10;;;;;;;10.10;4.60;;;;;;;6.06;40.13;101079.72;5062499;28;20033;-81
2022/03/10 07:15:35;;;;;;;10.73;4.70;;;;;;;6.03;40.54;101093.41;5063631;28;20343;-79
2022/03/10 07:18:01;;;;;;;13.73;4.10;;;;;;;6.07;41.06;101092.94;5063819;28;20029;-79
2022/03/10 07:20:26;;;;;;;11.95;3.70;;;;;;;6.36;39.84;101097.91;5063997;28;20063;-79
2022/03/10 07:22:52;;;;;;;10.38;3.85;;;;;;;6.35;39.59;101090.88;5061676;28;20051;-79
2022/03/10 07:25:18;;;;;;;11.02;4.63;;;;;;;6.41;39.22;101089.41;5063854;28;20029;-80
2022/03/10 07:27:44;;;;;;;10.10;3.92;;;;;;;6.60;39.59;101087.31;5064747;28;20083;-79
2022/03/10 07:30:09;;;;;;;11.03;4.30;;;;;;;6.87;38.66;101080.00;5063218;28;20036;-81
2022/03/10 07:32:36;;;;;;;11.60;4.57;;;;;;;6.90;38.57;101091.22;5063247;28;20053;-80
2022/03/10 07:35:02;;;;;;;11.33;4.37;;;;;;;6.99;38.32;101084.03;5063531;28;20082;-79
2022/03/10 07:37:27;;;;;;;12.35;4.00;;;;;;;6.93;38.37;101082.88;5059619;28;20476;-79
2022/03/10 07:39:53;;;;;;;11.67;4.20;;;;;;;6.85;39.06;101085.50;5058391;28;20036;-79
2022/03/10 07:42:18;;;;;;;14.25;5.30;;;;;;;6.98;38.93;101082.38;5056790;28;20025;-79
2022/03/10 07:44:44;;;;;;;15.95;5.10;;;;;;;7.01;38.69;101086.53;5056978;28;20028;-79
2022/03/10 07:47:10;;;;;;;11.55;4.93;;;;;;;7.03;38.39;101092.56;5057276;28;20108;-80
2022/03/10 07:49:35;;;;;;;10.50;4.25;;;;;;;7.12;38.69;101084.41;5055088;28;20029;-80
2022/03/10 07:52:03;;;;;;;9.05;3.95;;;;;;;7.23;38.16;101099.28;5058746;28;20025;-81
2022/03/10 07:54:29;;;;;;;11.48;4.55;;;;;;;7.30;38.56;101093.13;5057539;28;20029;-81
2022/03/10 07:56:54;;;;;;;11.38;4.78;;;;;;;7.29;38.15;101088.75;5058040;28;20025;-86
2022/03/10 07:59:20;;;;;;;13.23;4.95;;;;;;;7.56;37.47;101087.56;5056431;28;20488;-80
2022/03/10 08:01:45;;;;;;;9.98;4.43;;;;;;;7.58;37.73;101093.59;5055728;28;20086;-80
2022/03/10 08:04:11;;;;;;;12.67;4.60;;;;;;;7.75;37.02;101098.94;5057046;28;20086;-80
2022/03/10 08:06:36;;;;;;;14.02;4.13;;;;;;;7.94;36.16;101094.03;5055515;28;20391;-78
2022/03/10 08:09:02;;;;;;;10.70;4.28;;;;;;;8.12;36.19;101092.97;5055661;28;20025;-81
2022/03/10 08:11:28;;;;;;;10.93;4.72;;;;;;;8.24;36.10;101091.63;5055810;28;20116;-81
2022/03/10 08:13:54;;;;;;;14.40;5.82;;;;;;;8.39;35.90;101089.06;5055957;28;20040;-82
2022/03/10 08:16:20;;;;;;;12.10;4.85;;;;;;;8.48;35.58;101091.53;5057671;28;20056;-81
2022/03/10 08:18:47;;;;;;;10.82;4.32;;;;;;;8.54;35.96;101080.09;5056803;28;20052;-79
2022/03/10 08:21:12;;;;;;;10.07;4.38;;;;;;;8.75;35.50;101076.78;5055842;28;20111;-77
2022/03/10 08:23:37;;;;;;;13.65;4.43;;;;;;;8.95;34.66;101077.19;5058007;28;20065;-80
2022/03/10 08:26:03;;;;;;;11.70;4.57;;;;;;;8.95;33.95;101075.34;5059958;28;20029;-81
2022/03/10 08:28:28;;;;;;;12.00;4.57;;;;;;;9.11;34.16;101071.69;5058141;28;20295;-80
2022/03/10 08:30:54;;;;;;;12.67;4.43;;;;;;;9.22;33.93;101075.78;5057703;28;20029;-80
2022/03/10 08:33:19;;;;;;;14.68;4.90;;;;;;;9.33;33.79;101065.44;5057556;28;20136;-83
2022/03/10 08:35:44;;;;;;;9.77;4.47;;;;;;;9.35;32.95;101065.25;5055841;28;20479;-79
2022/03/10 08:38:11;;;;;;;17.03;5.03;;;;;;;9.33;33.43;101064.59;5055481;28;20487;-80
2022/03/10 08:40:36;;;;;;;;;;;;;;;9.46;33.06;101062.16;5056107;28;20476;-79
2022/03/10 08:43:02;;;;;;;11.30;4.95;;;;;;;9.48;33.78;101057.44;5057296;28;19916;-80
2022/03/10 08:45:27;;;;;;;11.27;4.65;;;;;;;9.58;33.34;101049.09;5056409;28;20048;-80
2022/03/10 08:47:55;;;;;;;13.70;5.27;;;;;;;9.68;33.77;101047.78;5056956;28;20033;-82
2022/03/10 08:50:22;;;;;;;10.82;4.45;;;;;;;9.85;32.87;101045.78;5057238;28;20256;-81
2022/03/10 08:52:48;;;;;;;13.85;5.38;;;;;;;9.94;32.96;101046.53;5055786;28;20033;-80
2022/03/10 08:55:17;;;;;;;10.73;4.32;;;;;;;10.18;33.36;101056.19;5056755;28;20082;-81
2022/03/10 08:57:42;;;;;;;13.13;4.97;;;;;;;10.37;32.51;101050.25;5055634;28;20044;-80
2022/03/10 09:00:10;;;;;;;16.10;6.00;;;;;;;10.25;32.92;101052.56;5057229;28;20384;-80
2022/03/10 09:02:35;;;;;;;15.38;5.45;;;;;;;10.31;32.81;101061.75;5057410;28;20041;-79
2022/03/10 09:05:13;;;;;;;12.10;5.20;;;;;;;10.48;32.32;101048.91;5056240;28;20037;-80
2022/03/10 09:07:40;;;;;;;14.13;5.45;;;;;;;10.53;32.39;101043.81;5055350;28;20764;-80
2022/03/10 09:10:06;;;;;;;12.50;5.07;;;;;;;10.56;31.52;101046.97;5056859;28;20021;-80
2022/03/10 09:12:32;;;;;;;13.75;5.50;;;;;;;10.55;32.08;101045.28;5058248;28;20063;-80
2022/03/10 09:14:57;;;;;;;11.30;4.95;;;;;;;10.56;32.58;101049.66;5057554;28;20037;-79
2022/03/10 09:17:23;;;;;;;12.63;5.67;;;;;;;10.82;31.80;101045.56;5059225;28;20083;-82
2022/03/10 09:19:49;;;;;;;16.20;5.20;;;;;;;10.88;31.92;101053.72;5058914;28;20476;-80
2022/03/10 09:22:15;;;;;;;17.45;6.30;;;;;;;10.96;32.06;101045.50;5060264;28;20499;-78
2022/03/10 09:24:40;;;;;;;13.63;5.60;;;;;;;11.07;31.05;101042.31;5059056;28;20033;-81
2022/03/10 09:27:07;;;;;;;14.07;6.10;;;;;;;11.29;30.94;101048.50;5060611;28;20027;-80
2022/03/10 09:29:32;;;;;;;11.35;4.32;;;;;;;11.34;31.30;101048.75;5059836;28;20056;-81
2022/03/10 09:31:58;;;;;;;17.40;5.97;;;;;;;11.54;30.90;101054.31;5059569;28;20392;-80
2022/03/10 09:34:23;;;;;;;15.40;6.37;;;;;;;11.45;30.53;101042.03;5060626;28;20387;-79
2022/03/10 09:36:49;;;;;;;16.37;5.83;;;;;;;11.51;31.20;101040.38;5058291;28;20760;-80
2022/03/10 09:39:15;;;;;;;14.93;6.22;;;;;;;11.91;30.60;101033.44;5060493;28;20036;-81
2022/03/10 09:42:05;;;;;;;15.00;5.25;;;;;;;11.99;30.49;101026.00;5061149;28;20391;-80
2022/03/10 09:44:33;;;;;;;14.93;5.80;;;;;;;11.99;30.25;101026.00;5077818;28;20040;-81
2022/03/10 09:47:03;;;;;;;14.93;6.15;;;;;;;12.09;29.63;101017.53;5077707;28;20097;-80
2022/03/10 09:49:29;;;;;;;17.83;6.82;;;;;;;12.31;29.52;101021.81;5060520;28;20040;-81
2022/03/10 09:51:56;;;;;;;18.10;7.28;;;;;;;12.46;28.91;101027.88;5060629;28;20025;-83
2022/03/10 09:54:22;;;;;;;16.10;6.00;;;;;;;12.38;28.57;101022.66;5077696;28;20491;-81
2022/03/10 09:56:47;;;;;;;18.17;6.47;;;;;;;12.37;28.71;101018.28;5077929;28;20118;-80
2022/03/10 09:59:13;;;;;;;15.88;6.22;;;;;;;12.61;28.21;101018.78;5077867;28;20448;-79
2022/03/10 10:01:38;;;;;;;16.50;6.53;;;;;;;12.70;27.75;101007.59;5079442;28;20549;-80
2022/03/10 10:04:04;;;;;;;12.97;5.43;;;;;;;12.74;27.96;101014.22;5078193;28;20483;-81
2022/03/10 10:06:30;;;;;;;15.15;6.70;;;;;;;12.66;28.01;101010.91;5078717;28;20269;-80
2022/03/10 10:08:56;;;;;;;15.63;6.78;;;;;;;12.74;27.31;101006.13;5078413;28;20123;-81
2022/03/10 10:11:33;;;;;;;16.05;6.25;;;;;;;12.69;28.18;101000.50;5061418;28;20474;-81
2022/03/10 10:13:59;;;;;;;16.50;6.50;;;;;;;12.93;27.51;101000.94;5061716;28;20068;-81
2022/03/10 10:16:24;;;;;;;14.30;6.63;;;;;;;13.09;26.63;101009.50;5077887;28;20108;-82
2022/03/10 10:18:58;;;;;;;13.47;6.17;;;;;;;13.16;26.71;101013.09;5078382;28;20115;-80
2022/03/10 10:21:25;;;;;;;15.90;6.35;;;;;;;13.05;26.90;101000.16;5058953;28;20037;-81
2022/03/10 10:23:53;;;;;;;14.48;6.15;;;;;;;13.23;26.52;101001.44;5060183;28;20052;-79
2022/03/10 10:26:25;;;;;;;16.23;6.93;;;;;;;13.33;27.26;101001.84;5061515;28;20068;-81
2022/03/10 10:28:51;;;;;;;15.98;5.70;;;;;;;13.47;26.65;100995.38;5060912;28;20091;-82
2022/03/10 10:31:20;;;;;;;14.35;5.97;;;;;;;13.66;26.63;101007.22;5060694;28;20025;-81
2022/03/10 10:34:11;;;;;;;15.63;6.32;;;;;;;13.67;26.54;100990.75;5060562;28;20043;-83
2022/03/10 10:36:38;;;;;;;15.50;6.05;;;;;;;13.66;26.27;100996.38;5063252;28;20041;-80
2022/03/10 10:39:12;;;;;;;14.48;5.82;;;;;;;13.54;26.90;100991.63;5059978;28;20048;-80
2022/03/10 10:41:45;;;;;;;18.23;6.60;;;;;;;13.65;26.64;100983.88;5057631;28;20029;-80
2022/03/10 10:44:19;;;;;;;13.82;5.57;;;;;;;13.93;26.39;100989.88;5058563;28;20048;-80
2022/03/10 10:46:46;;;;;;;14.88;5.65;;;;;;;13.87;26.01;100979.88;5058405;28;20060;-80
2022/03/10 10:49:16;;;;;;;16.80;6.22;;;;;;;13.93;26.02;100987.16;5057574;28;20044;-78
2022/03/10 10:51:43;;;;;;;14.90;6.15;;;;;;;14.07;25.74;100974.41;5058740;28;20052;-79
2022/03/10 10:54:29;;;;;;;15.77;5.65;;;;;;;14.12;25.33;100978.13;5057214;28;20044;-79
2022/03/10 10:57:02;;;;;;;15.27;6.68;;;;;;;13.88;25.52;100973.41;5058069;28;20028;-81
2022/03/10 10:59:37;;;;;;;27.30;5.80;;;;;;;14.01;25.16;100973.38;5058052;28;20029;-80
2022/03/10 11:02:30;;;;;;;13.30;5.20;;;;;;;14.09;25.31;100978.56;5059764;28;20105;-80
2022/03/10 11:04:57;;;;;;;13.98;5.53;;;;;;;14.15;25.55;100974.97;5045346;28;20029;-80
2022/03/10 11:07:23;;;;;;;16.02;6.40;;;;;;;14.21;24.84;100976.00;5059074;28;20032;-81
2022/03/10 11:09:53;;;;;;;14.27;6.00;;;;;;;14.12;24.86;100970.00;5058392;28;20120;-79
2022/03/10 11:12:22;;;;;;;14.35;6.10;;;;;;;14.24;25.18;100960.16;5056682;28;20064;-81
2022/03/10 11:14:56;;;;;;;14.43;5.70;;;;;;;14.30;25.22;100961.19;5058789;28;20032;-79
2022/03/10 11:17:26;;;;;;;13.63;5.30;;;;;;;14.31;24.78;100957.41;5059411;28;20044;-82
2022/03/10 11:19:57;;;;;;;15.80;5.38;;;;;;;14.30;25.35;100952.22;5057927;28;20025;-80
2022/03/10 11:22:26;;;;;;;13.98;6.00;;;;;;;14.28;25.42;100954.31;5057469;28;20025;-80
2022/03/10 11:25:06;;;;;;;11.05;4.65;;;;;;;14.43;24.92;100955.69;5056473;28;20028;-79
2022/03/10 11:27:46;;;;;;;12.95;5.72;;;;;;;14.64;25.04;100945.56;5057057;28;20082;-80
2022/03/10 11:30:12;;;;;;;14.73;5.65;;;;;;;14.53;25.44;100944.38;5056733;28;20112;-80